Bewolking Meer informatie Parkstad Weather Satellite


Neerslagradar Meer informatie Parkstad Rain Snow Radar


Onweersbuien Meer informatie Parkstad Lighntning


24/7 Weercamera Meer informatie Parkstad Weathercam


Natuurbrandrisico
CBI






Het weer levert geen direct gevaar op in Parkstad.    Er zijn geen waarschuwingen afgegeven voor Parkstad (045)

Select another period ( hide this area )

Eenheden Periode Custom range Directly to
Metrisch Engels Beide
Dagelijkse Wekelijkse Maandelijkse Jaarlijkse
use both date-selectors for a custom range
previous Dag
With this date

WeatherUnderground graphs for this period ( click here ) Loading the graph can take up to a minute!


Dagelijkse Samenvatting Vrijdag 18 september 2020
Tijd Temp. ( °C ) Dew pt. ( °C ) Wind ( km/h ) van Windvlaag ( km/h ) Luchtdruk ( hPa ) Humid.( % ) Rainrate ( cm ) Zonneschijn ( W/m2 )
Hoog24,1 10,6 34,0 Oosten ( 1905/2665 ) 34,0 1022,7 85 - 591
Gemiddeld14,1 7,1 13,9 Oosten #108/192 15,7 1021,1 64 - 399 #105/192
Laag8,2 5,6 -   0,0 1019,0 42 -  
Dagelijkse Tabular details for Vrijdag 18 september 2020
Tijd Temp. ( °C ) Dew pt. ( °C ) Wind ( km/h ) van Windvlaag ( km/h ) Luchtdruk ( hPa ) Humid.( % ) Rainrate ( cm ) Zonneschijn ( W/m2 )
00:04 12,8 6,4 6,0 ONO 8,0 1022,7 65 - -
00:09 12,8 6,6 8,0 ONO 8,0 1022,7 66 - -
00:14 12,7 6,5 5,0 ONO 6,0 1022,7 66 - -
00:19 12,6 6,6 6,0 ONO 8,0 1022,7 67 - -
00:24 12,5 6,7 6,0 ONO 6,0 1022,7 68 - -
00:29 12,4 6,7 6,0 ONO 6,0 1022,7 68 - -
00:34 12,3 6,6 6,0 ONO 6,0 1022,7 68 - -
00:39 12,3 6,6 13,0 ONO 13,0 1022,7 68 - -
00:44 12,3 6,6 6,0 ONO 13,0 1022,7 68 - -
00:49 12,3 6,6 13,0 ONO 13,0 1022,7 68 - -
00:54 12,3 6,3 8,0 ONO 13,0 1022,7 67 - -
00:59 12,3 6,6 8,0 ONO 15,0 1022,7 68 - -
01:04 12,3 6,6 11,0 Oosten 13,0 1022,7 68 - -
01:09 12,3 6,3 15,0 Oosten 15,0 1022,7 67 - -
01:14 12,3 6,3 14,0 ONO 15,0 1022,7 67 - -
01:19 12,3 6,3 11,0 Oosten 11,0 1022,4 67 - -
01:24 12,3 6,3 15,0 ONO 15,0 1022,4 67 - -
01:29 12,3 6,6 11,0 ONO 11,0 1022,4 68 - -
01:34 12,3 6,5 13,0 ONO 13,0 1022,4 68 - -
01:39 12,2 6,5 8,0 ONO 10,0 1022,4 68 - -
01:44 12,2 6,5 13,0 ONO 15,0 1022,4 68 - -
01:49 12,2 6,3 13,0 ONO 13,0 1022,0 67 - -
01:54 12,2 6,3 11,0 ONO 15,0 1022,0 67 - -
01:59 12,1 6,4 14,0 ONO 16,0 1022,0 68 - -
02:04 12,1 6,4 14,0 ONO 15,0 1022,0 68 - -
02:09 12,0 6,3 14,0 ONO 16,0 1022,0 68 - -
02:14 12,0 6,3 13,0 ONO 13,0 1022,0 68 - -
02:19 11,9 6,2 14,0 ONO 15,0 1022,0 68 - -
02:24 11,9 6,1 11,0 ONO 11,0 1022,0 68 - -
02:29 11,8 6,1 15,0 ONO 15,0 1022,0 68 - -
02:34 11,8 6,1 8,0 ONO 8,0 1022,0 68 - -
02:39 11,8 6,1 5,0 ONO 15,0 1022,0 68 - -
02:44 11,7 6,1 6,0 ONO 6,0 1022,0 69 - -
02:49 11,6 6,1 3,0 ONO 6,0 1022,0 69 - -
02:54 11,4 6,1 6,0 ONO 6,0 1022,0 70 - -
02:59 11,4 6,2 5,0 ONO 6,0 1022,0 71 - -
03:04 11,2 6,2 5,0 ONO 6,0 1021,7 72 - -
03:09 11,1 6,2 5,0 ONO 6,0 1021,7 72 - -
03:14 10,9 6,1 8,0 ONO 8,0 1021,7 72 - -
03:19 10,9 6,1 6,0 ONO 8,0 1021,3 72 - -
03:24 10,8 6,2 6,0 ONO 8,0 1021,3 73 - -
03:29 10,8 6,2 11,0 ONO 11,0 1021,3 73 - -
03:34 10,7 6,1 13,0 ONO 13,0 1021,3 73 - -
03:39 10,7 6,1 15,0 Oosten 15,0 1021,3 73 - -
03:44 10,6 6,0 10,0 Oosten 15,0 1021,3 73 - -
03:49 10,6 6,0 10,0 Oosten 10,0 1021,3 73 - -
03:54 10,4 6,0 11,0 Oosten 11,0 1021,3 74 - -
03:59 10,4 6,0 8,0 Oosten 8,0 1021,3 74 - -
04:04 10,3 6,0 5,0 Oosten 8,0 1021,3 75 - -
04:09 10,1 5,9 6,0 Oosten 6,0 1021,3 75 - -
04:14 10,1 5,9   Windstil 6,0 1021,3 76 - -
04:19 9,9 5,9 2,0 Oosten 2,0 1021,3 76 - -
04:24 9,8 6,0   Windstil 2,0 1021,3 77 - -
04:29 9,7 5,9   Windstil 2,0 1021,3 77 - -
04:34 9,7 6,0   Windstil 2,0 1021,3 78 - -
04:39 9,6 6,0   Windstil 2,0 1021,3 78 - -
04:44 9,5 5,9 1,0 Oosten 2,0 1021,3 78 - -
04:49 9,4 5,9 1,0 Oosten 3,0 1021,3 79 - -
04:54 9,2 5,7   Windstil   1021,3 79 - -
04:59 9,2 5,9   Windstil 3,0 1021,3 80 - -
05:04 9,2 5,9   Windstil   1021,3 80 - -
05:09 9,1 6,0 2,0 Oosten 2,0 1021,3 81 - -
05:14 9,1 6,0   Windstil 2,0 1021,3 81 - -
05:19 9,0 5,9   Windstil 2,0 1021,3 81 - -
05:24 8,9 5,8 3,0 Oosten 5,0 1021,3 81 - -
05:29 8,8 5,7 1,0 Oosten 2,0 1021,3 81 - -
05:34 8,8 5,7   Windstil 5,0 1021,3 81 - -
05:39 8,7 5,6   Windstil 2,0 1021,3 81 - -
05:44 8,7 5,8   Windstil 2,0 1021,3 82 - -
05:49 8,7 5,8 1,0 Oosten 2,0 1021,0 82 - -
05:54 8,6 5,7   Windstil 2,0 1021,0 82 - -
05:59 8,5 5,7   Windstil   1021,0 83 - -
06:04 8,3 5,6   Windstil 2,0 1021,0 83 - -
06:09 8,2 5,7 5,0 Oosten 5,0 1021,0 84 - -
06:14 8,2 5,7 5,0 Oosten 5,0 1021,0 84 - -
06:19 8,2 5,7   Windstil 2,0 1021,0 84 - -
06:24 8,2 5,7 5,0 Oosten 5,0 1021,0 84 - -
06:29 8,2 5,7   Windstil   1021,0 84 - -
06:34 8,2 5,7 2,0 Oosten 2,0 1021,0 84 - -
06:39 8,2 5,7   Windstil 2,0 1021,0 84 - -
06:44 8,2 5,7 3,0 Oosten 3,0 1021,0 84 - -
06:49 8,2 5,7 5,0 Oosten 5,0 1020,7 84 - -
06:54 8,2 5,8 8,0 Oosten 8,0 1020,7 85 - -
06:59 8,3 5,8 10,0 Oosten 10,0 1021,0 85 - -
07:04 8,4 5,9 8,0 Oosten 10,0 1021,0 84 - -
07:09 8,5 5,8 10,0 Oosten 10,0 1021,0 83 - -
07:14 8,5 5,8 10,0 Oosten 10,0 1021,0 83 - -
07:19 8,6 5,9 6,0 ONO 10,0 1021,0 83 - 5
07:24 8,7 5,8 13,0 ONO 13,0 1021,0 82 - 9
07:29 8,8 5,8 8,0 ONO 10,0 1021,0 82 - 12
07:34 8,9 5,8 8,0 Oosten 13,0 1021,0 81 - 16
07:39 9,0 5,7 10,0 Oosten 11,0 1021,0 80 - 19
07:44 9,1 5,8 8,0 ONO 11,0 1021,0 80 - 25
07:49 9,2 5,8 11,0 ONO 13,0 1021,0 80 - 30
07:54 9,4 5,8 11,0 ONO 11,0 1021,0 79 - 35
07:59 9,6 6,0 13,0 ONO 13,0 1021,0 78 - 39
08:04 9,7 6,0 13,0 ONO 13,0 1021,0 78 - 42
08:09 9,9 6,0 13,0 ONO 13,0 1021,0 77 - 46
08:14 10,1 6,1 13,0 ONO 13,0 1021,3 76 - 49
08:19 10,1 5,9 11,0 ONO 11,0 1021,3 75 - 53
08:24 10,2 6,0 13,0 ONO 13,0 1021,3 75 - 58
08:29 10,4 6,1 11,0 ONO 15,0 1021,3 75 - 63
08:34 10,4 6,0 11,0 Oosten 13,0 1021,3 74 - 69
08:39 10,6 6,2 14,0 ONO 16,0 1021,3 74 - 72
08:44 10,9 6,3 11,0 ONO 16,0 1021,3 73 - 72
08:49 11,1 6,2 21,0 Oosten 21,0 1021,3 72 - 74
08:54 11,3 6,2 13,0 Oosten 21,0 1021,3 71 - 178
08:59 11,6 6,1 18,0 Oosten 24,0 1021,3 70 - 185
09:04 11,8 6,1 14,0 Oosten 24,0 1021,3 68 - 186
09:09 12,1 6,2 24,0 Oosten 24,0 1021,3 68 - 220
09:14 12,3 6,3 16,0 Oosten 16,0 1021,3 67 - 246
09:19 12,6 6,4 16,0 ONO 24,0 1021,3 66 - 257
09:24 12,9 6,4 16,0 Oosten 16,0 1021,3 65 - 271
09:29 13,2 6,3 20,0 Oosten 19,0 1021,3 64 - 274
09:34 13,3 6,4 16,0 Oosten 16,0 1021,3 63 - 281
09:39 13,4 6,3 20,0 Oosten 21,0 1021,3 62 - 292
09:44 13,5 6,4 23,0 Oosten 23,0 1021,3 62 - 299
09:49 13,7 6,5 21,0 Oosten 21,0 1021,0 62 - 311
09:54 13,8 6,2 21,0 Oosten 24,0 1021,0 60 - 318
09:59 14,1 6,5 18,0 Oosten 19,0 1021,3 60 - 325
10:04 14,3 6,6 24,0 Oosten 24,0 1021,3 60 - 338
10:09 14,6 6,7 14,0 Oosten 19,0 1021,3 59 - 348
10:14 14,9 6,7 13,0 Oosten 21,0 1021,3 58 - 359
10:19 15,0 6,7 18,0 Oosten 21,0 1021,0 58 - 373
10:24 15,1 6,6 16,0 OZO 18,0 1021,0 57 - 383
10:29 15,3 6,6 24,0 Oosten 26,0 1021,3 56 - 390
10:34 15,5 6,7 24,0 Oosten 24,0 1021,3 56 - 401
10:39 15,5 6,7 20,0 OZO 19,0 1021,3 56 - 415
10:44 15,7 6,7 24,0 Oosten 24,0 1021,3 55 - 424
10:49 15,8 6,8 20,0 Oosten 19,0 1021,0 55 - 429
10:54 15,9 6,9 16,0 Oosten 21,0 1021,0 55 - 438
10:59 16,1 7,1 21,0 ONO 24,0 1021,0 55 - 448
11:04 16,3 7,0 21,0 Oosten 21,0 1021,0 54 - 455
11:09 16,6 7,1 24,0 Oosten 24,0 1021,0 54 - 466
11:14 16,9 7,4 21,0 Oosten 21,0 1021,0 54 - 476
11:19 17,2 7,5 21,0 Oosten 24,0 1021,0 53 - 485
11:24 17,3 7,3 20,0 Oosten 21,0 1021,0 52 - 492
11:29 17,3 7,3 24,0 ONO 26,0 1021,0 52 - 497
11:34 17,5 7,7 18,0 Oosten 24,0 1021,0 53 - 503
11:39 17,7 7,7 34,0 Oosten 34,0 1021,0 52 - 512
11:44 17,7 7,4 24,0 ONO 34,0 1021,0 51 - 519
11:49 17,8 7,5 23,0 Oosten 34,0 1021,0 51 - 524
11:54 17,9 7,6 26,0 ONO 34,0 1021,0 51 - 527
11:59 18,2 7,9 26,0 Oosten 29,0 1021,0 51 - 536
12:04 18,2 7,9 31,0 Oosten 31,0 1021,0 51 - 543
12:09 18,7 8,3 20,0 Oosten 21,0 1021,0 51 - 548
12:14 18,8 8,2 29,0 Oosten 31,0 1021,0 50 - 554
12:19 18,8 8,4 26,0 Oosten 26,0 1020,7 51 - 557
12:24 19,1 8,7 21,0 Oosten 29,0 1020,7 51 - 561
12:29 19,1 8,4 24,0 Oosten 24,0 1020,7 50 - 561
12:34 19,3 8,5 26,0 Oosten 26,0 1020,7 50 - 566
12:39 19,7 8,7 20,0 Oosten 24,0 1020,7 49 - 568
12:44 19,7 8,7 26,0 ONO 26,0 1020,7 49 - 571
12:49 19,9 8,9 26,0 Oosten 26,0 1020,7 49 - 577
12:54 20,2 9,1 21,0 Oosten 21,0 1020,7 49 - 584
12:59 20,2 8,8 26,0 Oosten 26,0 1020,7 48 - 584
13:04 20,3 8,9 18,0 Oosten 18,0 1020,3 48 - 585
13:09 20,7 9,2 18,0 Oosten 21,0 1020,3 48 - 585
13:14 20,9 9,2 23,0 Oosten 26,0 1020,3 47 - 591
13:19 21,1 9,2 24,0 Oosten 24,0 1020,3 47 - 591
13:24 21,0 8,9 21,0 Oosten 24,0 1020,3 46 - 589
13:29 20,9 9,2 23,0 Oosten 24,0 1020,3 47 - 587
13:34 21,0 9,3 26,0 Oosten 26,0 1020,0 47 - 585
13:39 21,2 9,4 21,0 ONO 21,0 1020,0 47 - 582
13:44 21,3 9,2 21,0 Oosten 26,0 1020,0 46 - 585
13:49 21,6 9,5 27,0 Oosten 27,0 1020,0 46 - 585
13:54 21,7 9,6 24,0 Oosten 26,0 1020,0 46 - 585
13:59 21,9 9,8 24,0 Oosten 27,0 1020,0 46 - 582
14:04 22,1 9,9 20,0 Oosten 21,0 1020,0 46 - 582
14:09 22,2 9,7 24,0 Oosten 24,0 1020,0 45 - 578
14:14 22,2 9,7 24,0 Oosten 24,0 1020,0 45 - 577
14:19 22,3 9,8 26,0 Oosten 26,0 1019,6 45 - 573
14:24 22,5 10,0 23,0 Oosten 26,0 1019,6 45 - 571
14:29 22,6 10,1 23,0 Oosten 26,0 1019,6 45 - 570
14:34 22,7 10,2 26,0 Oosten 27,0 1019,6 45 - 570
14:39 22,7 10,2 29,0 Oosten 29,0 1019,6 45 - 566
14:44 22,9 10,0 20,0 Oosten 19,0 1019,6 44 - 557
14:49 23,3 10,6 24,0 Oosten 29,0 1019,3 45 - 552
14:54 23,3 10,4 21,0 Oosten 23,0 1019,3 44 - 547
14:59 23,3 10,4 24,0 Oosten 24,0 1019,3 44 - 543
15:04 23,3 10,4 23,0 Oosten 29,0 1019,3 44 - 534
15:09 23,3 10,4 26,0 Oosten 29,0 1019,3 44 - 531
15:14 23,3 10,4 21,0 Oosten 29,0 1019,3 44 - 527
15:19 23,3 10,4 23,0 Oosten 29,0 1019,0 44 - 571
15:24 23,6 10,5 20,0 Oosten 19,0 1019,0 44 - 571
15:29 23,9 10,5 26,0 ONO 27,0 1019,0 43 - 506
15:34 23,9 10,6 18,0 Oosten 27,0 1019,0 43 - 494
15:39 23,9 10,6 27,0 Oosten 27,0 1019,0 43 - 483
15:44 23,9 10,6 18,0 Oosten 27,0 1019,0 43 - 478
15:49 23,8 10,1 23,0 Oosten 23,0 1019,0 42 - 469
15:54 23,9 10,2 20,0 Oosten 23,0 1019,0 42 - 466
15:59 24,1 10,2 24,0 Oosten 26,0 1019,0 42 - 452
Dagelijkse Samenvatting Vrijdag 18 september 2020
Tijd Temp. ( °C ) Dew pt. ( °C ) Wind ( km/h ) van Windvlaag ( km/h ) Luchtdruk ( hPa ) Humid.( % ) Rainrate ( cm ) Zonneschijn ( W/m2 )
Hoog24,1 10,6 34,0 Oosten ( 1905/2665 ) 34,0 1022,7 85 - 591
Gemiddeld14,1 7,1 13,9 Oosten #108/192 15,7 1021,1 64 - 399 #105/192
Laag8,2 5,6 -   0,0 1019,0 42 -  
Dagelijkse Tabular details for Vrijdag 18 september 2020
Tijd Temp. ( °C ) Dew pt. ( °C ) Wind ( km/h ) van Windvlaag ( km/h ) Luchtdruk ( hPa ) Humid.( % ) Rainrate ( cm ) Zonneschijn ( W/m2 )
00:04 12,8 6,4 6,0 ONO 8,0 1022,7 65 - -
00:09 12,8 6,6 8,0 ONO 8,0 1022,7 66 - -
00:14 12,7 6,5 5,0 ONO 6,0 1022,7 66 - -
00:19 12,6 6,6 6,0 ONO 8,0 1022,7 67 - -
00:24 12,5 6,7 6,0 ONO 6,0 1022,7 68 - -
00:29 12,4 6,7 6,0 ONO 6,0 1022,7 68 - -
00:34 12,3 6,6 6,0 ONO 6,0 1022,7 68 - -
00:39 12,3 6,6 13,0 ONO 13,0 1022,7 68 - -
00:44 12,3 6,6 6,0 ONO 13,0 1022,7 68 - -
00:49 12,3 6,6 13,0 ONO 13,0 1022,7 68 - -
00:54 12,3 6,3 8,0 ONO 13,0 1022,7 67 - -
00:59 12,3 6,6 8,0 ONO 15,0 1022,7 68 - -
01:04 12,3 6,6 11,0 Oosten 13,0 1022,7 68 - -
01:09 12,3 6,3 15,0 Oosten 15,0 1022,7 67 - -
01:14 12,3 6,3 14,0 ONO 15,0 1022,7 67 - -
01:19 12,3 6,3 11,0 Oosten 11,0 1022,4 67 - -
01:24 12,3 6,3 15,0 ONO 15,0 1022,4 67 - -
01:29 12,3 6,6 11,0 ONO 11,0 1022,4 68 - -
01:34 12,3 6,5 13,0 ONO 13,0 1022,4 68 - -
01:39 12,2 6,5 8,0 ONO 10,0 1022,4 68 - -
01:44 12,2 6,5 13,0 ONO 15,0 1022,4 68 - -
01:49 12,2 6,3 13,0 ONO 13,0 1022,0 67 - -
01:54 12,2 6,3 11,0 ONO 15,0 1022,0 67 - -
01:59 12,1 6,4 14,0 ONO 16,0 1022,0 68 - -
02:04 12,1 6,4 14,0 ONO 15,0 1022,0 68 - -
02:09 12,0 6,3 14,0 ONO 16,0 1022,0 68 - -
02:14 12,0 6,3 13,0 ONO 13,0 1022,0 68 - -
02:19 11,9 6,2 14,0 ONO 15,0 1022,0 68 - -
02:24 11,9 6,1 11,0 ONO 11,0 1022,0 68 - -
02:29 11,8 6,1 15,0 ONO 15,0 1022,0 68 - -
02:34 11,8 6,1 8,0 ONO 8,0 1022,0 68 - -
02:39 11,8 6,1 5,0 ONO 15,0 1022,0 68 - -
02:44 11,7 6,1 6,0 ONO 6,0 1022,0 69 - -
02:49 11,6 6,1 3,0 ONO 6,0 1022,0 69 - -
02:54 11,4 6,1 6,0 ONO 6,0 1022,0 70 - -
02:59 11,4 6,2 5,0 ONO 6,0 1022,0 71 - -
03:04 11,2 6,2 5,0 ONO 6,0 1021,7 72 - -
03:09 11,1 6,2 5,0 ONO 6,0 1021,7 72 - -
03:14 10,9 6,1 8,0 ONO 8,0 1021,7 72 - -
03:19 10,9 6,1 6,0 ONO 8,0 1021,3 72 - -
03:24 10,8 6,2 6,0 ONO 8,0 1021,3 73 - -
03:29 10,8 6,2 11,0 ONO 11,0 1021,3 73 - -
03:34 10,7 6,1 13,0 ONO 13,0 1021,3 73 - -
03:39 10,7 6,1 15,0 Oosten 15,0 1021,3 73 - -
03:44 10,6 6,0 10,0 Oosten 15,0 1021,3 73 - -
03:49 10,6 6,0 10,0 Oosten 10,0 1021,3 73 - -
03:54 10,4 6,0 11,0 Oosten 11,0 1021,3 74 - -
03:59 10,4 6,0 8,0 Oosten 8,0 1021,3 74 - -
04:04 10,3 6,0 5,0 Oosten 8,0 1021,3 75 - -
04:09 10,1 5,9 6,0 Oosten 6,0 1021,3 75 - -
04:14 10,1 5,9   Windstil 6,0 1021,3 76 - -
04:19 9,9 5,9 2,0 Oosten 2,0 1021,3 76 - -
04:24 9,8 6,0   Windstil 2,0 1021,3 77 - -
04:29 9,7 5,9   Windstil 2,0 1021,3 77 - -
04:34 9,7 6,0   Windstil 2,0 1021,3 78 - -
04:39 9,6 6,0   Windstil 2,0 1021,3 78 - -
04:44 9,5 5,9 1,0 Oosten 2,0 1021,3 78 - -
04:49 9,4 5,9 1,0 Oosten 3,0 1021,3 79 - -
04:54 9,2 5,7   Windstil   1021,3 79 - -
04:59 9,2 5,9   Windstil 3,0 1021,3 80 - -
05:04 9,2 5,9   Windstil   1021,3 80 - -
05:09 9,1 6,0 2,0 Oosten 2,0 1021,3 81 - -
05:14 9,1 6,0   Windstil 2,0 1021,3 81 - -
05:19 9,0 5,9   Windstil 2,0 1021,3 81 - -
05:24 8,9 5,8 3,0 Oosten 5,0 1021,3 81 - -
05:29 8,8 5,7 1,0 Oosten 2,0 1021,3 81 - -
05:34 8,8 5,7   Windstil 5,0 1021,3 81 - -
05:39 8,7 5,6   Windstil 2,0 1021,3 81 - -
05:44 8,7 5,8   Windstil 2,0 1021,3 82 - -
05:49 8,7 5,8 1,0 Oosten 2,0 1021,0 82 - -
05:54 8,6 5,7   Windstil 2,0 1021,0 82 - -
05:59 8,5 5,7   Windstil   1021,0 83 - -
06:04 8,3 5,6   Windstil 2,0 1021,0 83 - -
06:09 8,2 5,7 5,0 Oosten 5,0 1021,0 84 - -
06:14 8,2 5,7 5,0 Oosten 5,0 1021,0 84 - -
06:19 8,2 5,7   Windstil 2,0 1021,0 84 - -
06:24 8,2 5,7 5,0 Oosten 5,0 1021,0 84 - -
06:29 8,2 5,7   Windstil   1021,0 84 - -
06:34 8,2 5,7 2,0 Oosten 2,0 1021,0 84 - -
06:39 8,2 5,7   Windstil 2,0 1021,0 84 - -
06:44 8,2 5,7 3,0 Oosten 3,0 1021,0 84 - -
06:49 8,2 5,7 5,0 Oosten 5,0 1020,7 84 - -
06:54 8,2 5,8 8,0 Oosten 8,0 1020,7 85 - -
06:59 8,3 5,8 10,0 Oosten 10,0 1021,0 85 - -
07:04 8,4 5,9 8,0 Oosten 10,0 1021,0 84 - -
07:09 8,5 5,8 10,0 Oosten 10,0 1021,0 83 - -
07:14 8,5 5,8 10,0 Oosten 10,0 1021,0 83 - -
07:19 8,6 5,9 6,0 ONO 10,0 1021,0 83 - 5
07:24 8,7 5,8 13,0 ONO 13,0 1021,0 82 - 9
07:29 8,8 5,8 8,0 ONO 10,0 1021,0 82 - 12
07:34 8,9 5,8 8,0 Oosten 13,0 1021,0 81 - 16
07:39 9,0 5,7 10,0 Oosten 11,0 1021,0 80 - 19
07:44 9,1 5,8 8,0 ONO 11,0 1021,0 80 - 25
07:49 9,2 5,8 11,0 ONO 13,0 1021,0 80 - 30
07:54 9,4 5,8 11,0 ONO 11,0 1021,0 79 - 35
07:59 9,6 6,0 13,0 ONO 13,0 1021,0 78 - 39
08:04 9,7 6,0 13,0 ONO 13,0 1021,0 78 - 42
08:09 9,9 6,0 13,0 ONO 13,0 1021,0 77 - 46
08:14 10,1 6,1 13,0 ONO 13,0 1021,3 76 - 49
08:19 10,1 5,9 11,0 ONO 11,0 1021,3 75 - 53
08:24 10,2 6,0 13,0 ONO 13,0 1021,3 75 - 58
08:29 10,4 6,1 11,0 ONO 15,0 1021,3 75 - 63
08:34 10,4 6,0 11,0 Oosten 13,0 1021,3 74 - 69
08:39 10,6 6,2 14,0 ONO 16,0 1021,3 74 - 72
08:44 10,9 6,3 11,0 ONO 16,0 1021,3 73 - 72
08:49 11,1 6,2 21,0 Oosten 21,0 1021,3 72 - 74
08:54 11,3 6,2 13,0 Oosten 21,0 1021,3 71 - 178
08:59 11,6 6,1 18,0 Oosten 24,0 1021,3 70 - 185
09:04 11,8 6,1 14,0 Oosten 24,0 1021,3 68 - 186
09:09 12,1 6,2 24,0 Oosten 24,0 1021,3 68 - 220
09:14 12,3 6,3 16,0 Oosten 16,0 1021,3 67 - 246
09:19 12,6 6,4 16,0 ONO 24,0 1021,3 66 - 257
09:24 12,9 6,4 16,0 Oosten 16,0 1021,3 65 - 271
09:29 13,2 6,3 20,0 Oosten 19,0 1021,3 64 - 274
09:34 13,3 6,4 16,0 Oosten 16,0 1021,3 63 - 281
09:39 13,4 6,3 20,0 Oosten 21,0 1021,3 62 - 292
09:44 13,5 6,4 23,0 Oosten 23,0 1021,3 62 - 299
09:49 13,7 6,5 21,0 Oosten 21,0 1021,0 62 - 311
09:54 13,8 6,2 21,0 Oosten 24,0 1021,0 60 - 318
09:59 14,1 6,5 18,0 Oosten 19,0 1021,3 60 - 325
10:04 14,3 6,6 24,0 Oosten 24,0 1021,3 60 - 338
10:09 14,6 6,7 14,0 Oosten 19,0 1021,3 59 - 348
10:14 14,9 6,7 13,0 Oosten 21,0 1021,3 58 - 359
10:19 15,0 6,7 18,0 Oosten 21,0 1021,0 58 - 373
10:24 15,1 6,6 16,0 OZO 18,0 1021,0 57 - 383
10:29 15,3 6,6 24,0 Oosten 26,0 1021,3 56 - 390
10:34 15,5 6,7 24,0 Oosten 24,0 1021,3 56 - 401
10:39 15,5 6,7 20,0 OZO 19,0 1021,3 56 - 415
10:44 15,7 6,7 24,0 Oosten 24,0 1021,3 55 - 424
10:49 15,8 6,8 20,0 Oosten 19,0 1021,0 55 - 429
10:54 15,9 6,9 16,0 Oosten 21,0 1021,0 55 - 438
10:59 16,1 7,1 21,0 ONO 24,0 1021,0 55 - 448
11:04 16,3 7,0 21,0 Oosten 21,0 1021,0 54 - 455
11:09 16,6 7,1 24,0 Oosten 24,0 1021,0 54 - 466
11:14 16,9 7,4 21,0 Oosten 21,0 1021,0 54 - 476
11:19 17,2 7,5 21,0 Oosten 24,0 1021,0 53 - 485
11:24 17,3 7,3 20,0 Oosten 21,0 1021,0 52 - 492
11:29 17,3 7,3 24,0 ONO 26,0 1021,0 52 - 497
11:34 17,5 7,7 18,0 Oosten 24,0 1021,0 53 - 503
11:39 17,7 7,7 34,0 Oosten 34,0 1021,0 52 - 512
11:44 17,7 7,4 24,0 ONO 34,0 1021,0 51 - 519
11:49 17,8 7,5 23,0 Oosten 34,0 1021,0 51 - 524
11:54 17,9 7,6 26,0 ONO 34,0 1021,0 51 - 527
11:59 18,2 7,9 26,0 Oosten 29,0 1021,0 51 - 536
12:04 18,2 7,9 31,0 Oosten 31,0 1021,0 51 - 543
12:09 18,7 8,3 20,0 Oosten 21,0 1021,0 51 - 548
12:14 18,8 8,2 29,0 Oosten 31,0 1021,0 50 - 554
12:19 18,8 8,4 26,0 Oosten 26,0 1020,7 51 - 557
12:24 19,1 8,7 21,0 Oosten 29,0 1020,7 51 - 561
12:29 19,1 8,4 24,0 Oosten 24,0 1020,7 50 - 561
12:34 19,3 8,5 26,0 Oosten 26,0 1020,7 50 - 566
12:39 19,7 8,7 20,0 Oosten 24,0 1020,7 49 - 568
12:44 19,7 8,7 26,0 ONO 26,0 1020,7 49 - 571
12:49 19,9 8,9 26,0 Oosten 26,0 1020,7 49 - 577
12:54 20,2 9,1 21,0 Oosten 21,0 1020,7 49 - 584
12:59 20,2 8,8 26,0 Oosten 26,0 1020,7 48 - 584
13:04 20,3 8,9 18,0 Oosten 18,0 1020,3 48 - 585
13:09 20,7 9,2 18,0 Oosten 21,0 1020,3 48 - 585
13:14 20,9 9,2 23,0 Oosten 26,0 1020,3 47 - 591
13:19 21,1 9,2 24,0 Oosten 24,0 1020,3 47 - 591
13:24 21,0 8,9 21,0 Oosten 24,0 1020,3 46 - 589
13:29 20,9 9,2 23,0 Oosten 24,0 1020,3 47 - 587
13:34 21,0 9,3 26,0 Oosten 26,0 1020,0 47 - 585
13:39 21,2 9,4 21,0 ONO 21,0 1020,0 47 - 582
13:44 21,3 9,2 21,0 Oosten 26,0 1020,0 46 - 585
13:49 21,6 9,5 27,0 Oosten 27,0 1020,0 46 - 585
13:54 21,7 9,6 24,0 Oosten 26,0 1020,0 46 - 585
13:59 21,9 9,8 24,0 Oosten 27,0 1020,0 46 - 582
14:04 22,1 9,9 20,0 Oosten 21,0 1020,0 46 - 582
14:09 22,2 9,7 24,0 Oosten 24,0 1020,0 45 - 578
14:14 22,2 9,7 24,0 Oosten 24,0 1020,0 45 - 577
14:19 22,3 9,8 26,0 Oosten 26,0 1019,6 45 - 573
14:24 22,5 10,0 23,0 Oosten 26,0 1019,6 45 - 571
14:29 22,6 10,1 23,0 Oosten 26,0 1019,6 45 - 570
14:34 22,7 10,2 26,0 Oosten 27,0 1019,6 45 - 570
14:39 22,7 10,2 29,0 Oosten 29,0 1019,6 45 - 566
14:44 22,9 10,0 20,0 Oosten 19,0 1019,6 44 - 557
14:49 23,3 10,6 24,0 Oosten 29,0 1019,3 45 - 552
14:54 23,3 10,4 21,0 Oosten 23,0 1019,3 44 - 547
14:59 23,3 10,4 24,0 Oosten 24,0 1019,3 44 - 543
15:04 23,3 10,4 23,0 Oosten 29,0 1019,3 44 - 534
15:09 23,3 10,4 26,0 Oosten 29,0 1019,3 44 - 531
15:14 23,3 10,4 21,0 Oosten 29,0 1019,3 44 - 527
15:19 23,3 10,4 23,0 Oosten 29,0 1019,0 44 - 571
15:24 23,6 10,5 20,0 Oosten 19,0 1019,0 44 - 571
15:29 23,9 10,5 26,0 ONO 27,0 1019,0 43 - 506
15:34 23,9 10,6 18,0 Oosten 27,0 1019,0 43 - 494
15:39 23,9 10,6 27,0 Oosten 27,0 1019,0 43 - 483
15:44 23,9 10,6 18,0 Oosten 27,0 1019,0 43 - 478
15:49 23,8 10,1 23,0 Oosten 23,0 1019,0 42 - 469
15:54 23,9 10,2 20,0 Oosten 23,0 1019,0 42 - 466
15:59 24,1 10,2 24,0 Oosten 26,0 1019,0 42 - 452

Download your copy of this data-set  here

U vindt ons ook hier:

Het Weer Aktueel

WOW Nederland KNMI

Vereniging voor Weerkunde en Klimatologie

UK Met Office Weather Observation Website (WOW)

WeatherCloud

Weather Underground

Awekas

MeteoMap.Cloud

HAMweather, WeatherForYou, PWS Weather

Citizen Weather Observer Program (CWOP)

Apparatuur in gebruik:

Hardwareleverancier
Weerhuisje

Weerstation
Vantage Pro2+ UV

Weercomputer's
alix3d2 & wl330n

Weerprogramma's
Smartbedded

Satelliet NOAA's
WRX137 & KX137

Satelliet Eumetsat
Ayecka SR1 & Triax

Bliksemdetectie
Boltek StormTracker

Webleverancier
F-Service

Weerhuisje

Vantage Pro2+ UV

alix3d2 & wl330n

Smartbedded

WRX137 & KX137

Ayecka SR1 & Triax

Boltek StormTracker

F-Service